This is the latest recevied weather packets stored in our database for station/object DO7ZT-10. If no packets are shown the sender has not sent any weather packets the latest 10 day(s).
| Time | Temp. | Humidity | Pressure | Rain* | Wind** | Luminosity | Snow |
|---|---|---|---|---|---|---|---|
| 1777323834 | 7.22° C | 63% | 1021.2 hPa | - | - | - | - |
| 1777322934 | 7.22° C | 64% | 1021.2 hPa | - | - | - | - |
| 1777322034 | 7.22° C | 62% | 1021.2 hPa | - | - | - | - |
| 1777321134 | 7.22° C | 64% | 1021.2 hPa | - | - | - | - |
| 1777320234 | 7.78° C | 62% | 1021.2 hPa | - | - | - | - |
| 1777319334 | 7.78° C | 59% | 1021.3 hPa | - | - | - | - |
| 1777318434 | 7.78° C | 62% | 1021.2 hPa | - | - | - | - |
| 1777317534 | 8.33° C | 60% | 1021.3 hPa | - | - | - | - |
| 1777316634 | 8.89° C | 56% | 1021.3 hPa | - | - | - | - |
| 1777315734 | 10.56° C | 50% | 1021.2 hPa | - | - | - | - |
| 1777314834 | 11.11° C | 49% | 1021.1 hPa | - | - | - | - |
| 1777313934 | 11.67° C | 49% | 1021.1 hPa | - | - | - | - |
| 1777313033 | 12.78° C | 44% | 1020.9 hPa | - | - | - | - |
| 1777312133 | 13.89° C | 41% | 1020.9 hPa | - | - | - | - |
| 1777311233 | 14.44° C | 35% | 1020.9 hPa | - | - | - | - |
| 1777310333 | 14.44° C | 32% | 1020.9 hPa | - | - | - | - |
| 1777309433 | 15° C | 31% | 1021 hPa | - | - | - | - |
| 1777308533 | 15.56° C | 29% | 1020.9 hPa | - | - | - | - |
| 1777307633 | 15.56° C | 29% | 1020.9 hPa | - | - | - | - |
| 1777306733 | 16.11° C | 27% | 1020.9 hPa | - | - | - | - |
| 1777305833 | 16.11° C | 29% | 1021 hPa | - | - | - | - |
| 1777304933 | 16.67° C | 28% | 1021.1 hPa | - | - | - | - |
| 1777304033 | 17.22° C | 27% | 1021.1 hPa | - | - | - | - |
| 1777303133 | 16.67° C | 27% | 1021.1 hPa | - | - | - | - |
| 1777302233 | 16.67° C | 26% | 1021.3 hPa | - | - | - | - |
* Rain since midnight (hover to see other rain measurements)
** Current wind speed in m/s (hover to see current wind gust speed)